Metar Cercanos

 

LEPA - Palma De Mallorc, Spain
Distance from station: ONO 38km
Actualización: Mon, 26-Oct-2020 12:00am CET
Few Clouds
Few Clouds
 Viento del SO
Viento: SO 24 km/h
Temperatura: 20°C
Rocío: 16°C
Humedad: 78%
Barómetro: 1011 hPa
Clouds: Few Clouds
Visibility: 10 km
Cloud details: Few Clouds 549 m
2020/10/25 23:00 LEPA 252300Z 23013KT 9999 FEW018 20/16 Q1011 NOSIG
LEMH - Mahon/Menorca Is, Spain
Distance from station: ENE 105km
Actualización: Mon, 26-Oct-2020 12:00am CET
Parcialmente nuboso
Parcialmente nuboso
 Viento del SO
Viento: SO 28 km/h, Racha: 46 km/h
Temperatura: 19°C
Rocío: 15°C
Humedad: 78%
Barómetro: 1011 hPa
Clouds: Parcialmente nuboso
Visibility: 10 km
Cloud details: Parcialmente nuboso 518 m
2020/10/25 23:00 LEMH 252300Z 22015G25KT 200V260 9999 SCT017 19/15 Q1011
 
LEIB - Ibiza/Es Codola, Spain
Distance from station: OSO 165km
Actualización: Mon, 26-Oct-2020 12:00am CET
Muy nuboso
Muy nuboso
 Viento del SO
Viento: SO 22 km/h
Temperatura: 20°C
Rocío: 16°C
Humedad: 78%
Barómetro: 1012 hPa
Clouds: Muy nuboso
Visibility: 10 km
Cloud details: Muy nuboso 549 m
Muy nuboso 671 m
Muy nuboso 823 m
2020/10/25 23:00 LEIB 252300Z 23012KT 9999 BKN018 BKN022 BKN027 20/16 Q1012 NOSIG
LEBL - Barcelona Airpor, Spain
Distance from station: NNO 225km
Actualización: Mon, 26-Oct-2020 12:00am CET
Despejado
Despejado
 Viento del ONO
Viento: ONO 9 km/h
Temperatura: 15°C
Rocío: 10°C
Humedad: 72%
Barómetro: 1007 hPa
Resumen: Despejado
Visibility: greater than 10 km
2020/10/25 23:00 LEBL 252300Z 30005KT CAVOK 15/10 Q1007 NOSIG
 
LEVC - Valencia (civ/Mi, Spain
Distance from station: NO 188km
Actualización: Mon, 26-Oct-2020 12:00am CET
Few Clouds
Few Clouds
 Viento del O
Viento: O 17 km/h
Temperatura: 20°C
Rocío: 10°C
Humedad: 53%
Barómetro: 1010 hPa
Clouds: Few Clouds
Visibility: 10 km
Cloud details: Few Clouds 1219 m
2020/10/25 23:00 LEVC 252300Z 26009KT 9999 FEW040 20/10 Q1010 NOSIG
LEGE - Gerona/Costa Bra, Spain
Distance from station: N 276km
Actualización: Mon, 26-Oct-2020 12:00am CET
Despejado
Despejado
 Viento del S
Viento: S 2 km/h
Temperatura: 14°C
Rocío: 8°C
Humedad: 67%
Barómetro: 1006 hPa
Resumen: Despejado
Visibility: greater than 10 km
2020/10/25 23:00 LEGE 252300Z 19001KT CAVOK 14/08 Q1006
 
LEAL - Alicante/El Alte, Spain
Distance from station: OSO 344km
Actualización: Mon, 26-Oct-2020 12:00am CET
Despejado
Despejado
 Viento del OSO
Viento: OSO 11 km/h
Temperatura: 15°C
Rocío: 10°C
Humedad: 72%
Barómetro: 1012 hPa
Resumen: Despejado
Visibility: greater than 10 km
2020/10/25 23:00 LEAL 252300Z 24006KT 200V280 CAVOK 15/10 Q1012 NOSIG
LEAM - Almeria Airport, Spain
Distance from station: SSO 56km
Actualización: Mon, 26-Oct-2020 12:00am CET
Despejado
Despejado
 Viento del OSO
Viento: OSO 26 km/h
Temperatura: 18°C
Rocío: 13°C
Humedad: 73%
Barómetro: 1014 hPa
Resumen: Despejado
Visibility: greater than 10 km
2020/10/25 23:00 LEAM 252300Z AUTO 25014KT CAVOK 18/13 Q1014
 
LEZG - Zaragoza (mil/Ci, Spain
Distance from station: NO 431km
Actualización: Mon, 26-Oct-2020 12:00am CET
Muy nuboso
Muy nuboso
 Viento del NO
Viento: NO 9 km/h
Temperatura: 12°C
Rocío: 11°C
Humedad: 94%
Barómetro: 1011 hPa
Clouds: Muy nuboso
Visibility: 10 km
Cloud details: Few Clouds 1067 m
Muy nuboso 2438 m
2020/10/25 23:00 LEZG 252300Z 31005KT 260V340 9999 FEW035 BKN080 12/11 Q1011
LEMD - Madrid/Barajas, Spain
Distance from station: ONO 234km
Actualización: Mon, 26-Oct-2020 12:00am CET
Parcialmente nuboso
Parcialmente nuboso
 Viento del O
Viento: O 17 km/h
Temperatura: 10°C
Sensación frio: 8°C
Rocío: 5°C
Humedad: 71%
Barómetro: 1013 hPa
Clouds: Parcialmente nuboso
Visibility: 10 km
Cloud details: Few Clouds 305 m
Parcialmente nuboso 1981 m
2020/10/25 23:00 LEMD 252300Z 26009KT 230V290 9999 FEW010 SCT065 10/05 Q1013 R88/29//95 NOSIG
 
LEGR - Granada Airport, Spain
Distance from station: OSO 62km
Actualización: Mon, 26-Oct-2020 12:00am CET
Cubierto
Cubierto
 Viento del varies
Viento: varies 2 km/h
Temperatura: 14°C
Rocío: 10°C
Humedad: 77%
Barómetro: 1018 hPa
Clouds: Cubierto
Visibility: 10 km
Cloud details: Cubierto 914 m
2020/10/25 23:00 LEGR 252300Z VRB01KT 9999 OVC030 14/10 Q1018
LEMG - Malaga (civ/Mil), Spain
Distance from station: OSO 227km
Actualización: Mon, 26-Oct-2020 12:00am CET
Few Clouds
Few Clouds
 Viento del O
Viento: O 9 km/h
Temperatura: 16°C
Rocío: 12°C
Humedad: 77%
Barómetro: 1017 hPa
Clouds: Few Clouds
Visibility: 10 km
Cloud details: Few Clouds 914 m
2020/10/25 23:00 LEMG 252300Z 28005KT 9999 FEW030 16/12 Q1017 NOSIG
 
LEZL - Sevilla (civ/Mil, Spain
Distance from station: S 318km
Actualización: Mon, 26-Oct-2020 12:00am CET
Muy nuboso
Muy nuboso
 Viento del OSO
Viento: OSO 17 km/h
Temperatura: 17°C
Rocío: 13°C
Humedad: 77%
Barómetro: 1018 hPa
Clouds: Muy nuboso
Visibility: 10 km
Cloud details: Few Clouds 610 m
Muy nuboso 1372 m
2020/10/25 23:00 LEZL 252300Z 25009KT 9999 FEW020 BKN045 17/13 Q1018 NOSIG
LEVT - Vitoria, Spain
Distance from station: NO 226km
Actualización: Mon, 26-Oct-2020 12:00am CET
Muy nuboso
Muy nuboso
 Viento del SSO
Viento: SSO 7 km/h
Temperatura: 7°C
Sensación frio: 6°C
Rocío: 5°C
Humedad: 87%
Barómetro: 1012 hPa
Clouds: Muy nuboso
Visibility: 10 km
Cloud details: Few Clouds 427 m
Muy nuboso 1372 m
2020/10/25 23:00 LEVT 252300Z 20004KT 9999 FEW014 BKN045 07/05 Q1012
 
LEBB - Bilbao/Sondica, Spain
Distance from station: NNO 235km
Actualización: Mon, 26-Oct-2020 12:00am CET
Despejado
Despejado
 Viento del varies
Viento: varies 2 km/h
Temperatura: 10°C
Rocío: 10°C
Humedad: 100%
Barómetro: 1011 hPa
Resumen: Despejado
Visibility: greater than 10 km
2020/10/25 23:00 LEBB 252300Z AUTO VRB01KT CAVOK 10/10 Q1011
LESO - San Sebastian/Fu, Spain
Distance from station: N 231km
Actualización: Mon, 26-Oct-2020 12:00am CET
Lluvia débil, Few clouds
Lluvia débil, Few clouds
 Viento del SO
Viento: SO 9 km/h
Temperatura: 11°C
Rocío: 9°C
Humedad: 88%
Barómetro: 1011 hPa
Resumen: Lluvia débil
Clouds: Few Clouds
Visibility: 10 km
Cloud details: Few Clouds 1737 m
2020/10/25 23:00 LESO 252300Z AUTO 23005KT 200V270 9999 -RA FEW057 11/09 Q1011
 
LEVD - Valladolid(Mil/C, Spain
Distance from station: ONO 239km
Actualización: Mon, 26-Oct-2020 12:00am CET
Despejado
Despejado
 Viento del OSO
Viento: OSO 17 km/h
Temperatura: 5°C
Sensación frio: 2°C
Rocío: 4°C
Humedad: 93%
Barómetro: 1014 hPa
Resumen: Despejado
Visibility: greater than 10 km
2020/10/25 23:00 LEVD 252300Z AUTO 25009KT CAVOK 05/04 Q1014
LESA - Salamanca (civ/M, Spain
Distance from station: ONO 349km
Actualización: Mon, 26-Oct-2020 12:00am CET
Few Clouds
Few Clouds
 Viento del O
Viento: O 11 km/h
Temperatura: 5°C
Sensación frio: 2°C
Rocío: 4°C
Humedad: 93%
Barómetro: 1015 hPa
Clouds: Few Clouds
Visibility: 10 km
Cloud details: Few Clouds 792 m
2020/10/25 23:00 LESA 252300Z AUTO 27006KT 9999 FEW026 05/04 Q1015
 
LEXJ - Santander/Paraya, Spain
Distance from station: NNO 247km
Actualización: Mon, 26-Oct-2020 12:00am CET
Muy nuboso
Muy nuboso
 Viento del SO
Viento: SO 13 km/h
Temperatura: 11°C
Rocío: 6°C
Humedad: 72%
Barómetro: 1012 hPa
Clouds: Muy nuboso
Visibility: 6 km
Cloud details: Few Clouds 1402 m
Parcialmente nuboso 1829 m
Muy nuboso 2408 m
2020/10/25 23:00 LEXJ 252300Z AUTO 23007KT 200V260 6000 FEW046 SCT060 BKN079 11/06 Q1012
LEAS - Asturias/Aviles, Spain
Distance from station: NO 214km
Actualización: Mon, 26-Oct-2020 12:00am CET
Parcialmente nuboso
Parcialmente nuboso
 Viento del OSO
Viento: OSO 17 km/h
Temperatura: 10°C
Sensación frio: 8°C
Rocío: 6°C
Humedad: 76%
Barómetro: 1013 hPa
Clouds: Parcialmente nuboso
Visibility: 10 km
Cloud details: Parcialmente nuboso 1981 m
Parcialmente nuboso 2347 m
2020/10/25 23:00 LEAS 252300Z AUTO 25009KT 210V270 9999 SCT065 SCT077 10/06 Q1013
 
LECO - La Coruna/Alvedr, Spain
Distance from station: ONO 222km
Actualización: Mon, 26-Oct-2020 12:00am CET
Few Clouds
Few Clouds
 Viento del SO
Viento: SO 20 km/h
Temperatura: 9°C
Sensación frio: 6°C
Rocío: 8°C
Humedad: 94%
Barómetro: 1014 hPa
Clouds: Few Clouds
Visibility: 10 km
Cloud details: Few Clouds 1128 m
2020/10/25 23:00 LECO 252300Z 23011KT 9999 FEW037 09/08 Q1014 TEMPO SHRA SCT030TCU
LEVX - Vigo/Peinador, Spain
Distance from station: O 214km
Actualización: Mon, 26-Oct-2020 12:00am CET
Niebla, Cubierto
Niebla, Cubierto
 Viento del varies
Viento: varies 6 km/h
Temperatura: 8°C
Rocío: 8°C
Humedad: 100%
Barómetro: 1016 hPa
Resumen: Niebla
Clouds: Cubierto
Visibility: 1 km
Cloud details: Cubierto 30 m
2020/10/25 23:00 LEVX 252300Z VRB03KT 0900 R19/P2000 R01/1700U FG VV001 08/08 Q1016 TEMPO RA